createdAt,value
2019-02-22T00:01:30.114Z,125.77
2019-02-22T00:04:03.010Z,136.40
2019-02-22T00:06:34.695Z,150.33
2019-02-22T00:09:06.846Z,131.27
2019-02-22T00:11:38.330Z,131.77
2019-02-22T00:14:09.748Z,130.00
2019-02-22T00:16:41.100Z,140.40
2019-02-22T00:19:12.702Z,131.37
2019-02-22T00:21:44.429Z,125.10
2019-02-22T00:24:15.862Z,147.67
2019-02-22T00:26:48.473Z,143.73
2019-02-22T00:29:24.203Z,154.57
2019-02-22T00:31:55.831Z,136.43
2019-02-22T00:34:27.700Z,134.97
2019-02-22T00:37:01.053Z,145.00
2019-02-22T00:39:32.587Z,151.70
2019-02-22T00:42:04.092Z,150.33
2019-02-22T00:44:35.398Z,138.57
2019-02-22T00:47:06.917Z,130.57
2019-02-22T00:49:39.431Z,129.43
2019-02-22T00:52:11.461Z,122.10
2019-02-22T00:54:43.000Z,149.67
2019-02-22T00:57:14.799Z,129.27
2019-02-22T00:59:48.425Z,118.30
2019-02-22T01:02:20.092Z,143.37
2019-02-22T01:04:51.972Z,136.37
2019-02-22T01:07:23.247Z,107.07
2019-02-22T01:09:54.637Z,131.37
2019-02-22T01:12:26.275Z,146.33
2019-02-22T01:14:57.789Z,113.03
2019-02-22T01:17:30.599Z,191.30
2019-02-22T01:20:01.899Z,155.57
2019-02-22T01:22:34.643Z,118.70
2019-02-22T01:25:06.833Z,161.03
2019-02-22T01:27:38.153Z,133.07
2019-02-22T01:30:10.267Z,141.77
2019-02-22T01:32:41.609Z,116.43
2019-02-22T01:35:13.061Z,155.97
2019-02-22T01:37:44.558Z,122.73
2019-02-22T01:40:18.229Z,137.30
2019-02-22T01:42:50.706Z,94.07
2019-02-22T01:45:23.851Z,80.63
2019-02-22T01:47:55.199Z,84.57
2019-02-22T01:50:27.130Z,79.20
2019-02-22T01:52:59.239Z,78.90
2019-02-22T01:55:31.714Z,110.17
2019-02-22T01:58:02.986Z,99.93
2019-02-22T02:00:34.958Z,107.93
2019-02-22T02:03:06.869Z,104.67
2019-02-22T02:05:38.134Z,95.53
2019-02-22T02:08:09.537Z,109.77
2019-02-22T02:10:40.804Z,92.43
2019-02-22T02:13:12.065Z,99.77
2019-02-22T02:15:43.624Z,103.33
2019-02-22T02:18:14.948Z,88.57
2019-02-22T02:20:46.445Z,108.67
2019-02-22T02:23:18.157Z,84.57
2019-02-22T02:25:49.598Z,113.80
2019-02-22T02:28:21.054Z,92.30
2019-02-22T02:30:52.432Z,107.10
2019-02-22T02:33:23.728Z,94.10
2019-02-22T02:35:55.446Z,130.53
2019-02-22T02:38:27.283Z,93.13
2019-02-22T02:41:08.206Z,115.50
2019-02-22T02:43:31.740Z,147.80
2019-02-22T02:46:03.518Z,123.03
2019-02-22T02:48:35.277Z,109.83
2019-02-22T02:51:07.062Z,115.53
2019-02-22T02:53:39.947Z,121.53
2019-02-22T02:56:11.555Z,69.07
2019-02-22T02:58:43.112Z,69.80
2019-02-22T03:01:14.444Z,83.97
2019-02-22T03:03:45.928Z,92.40
2019-02-22T03:06:26.973Z,108.83
2019-02-22T03:08:59.551Z,79.80
2019-02-22T03:11:30.989Z,88.57
2019-02-22T03:14:02.272Z,64.07
2019-02-22T03:16:34.136Z,70.80
2019-02-22T03:19:06.008Z,67.60
2019-02-22T03:21:37.437Z,66.47
2019-02-22T03:24:09.295Z,76.67
2019-02-22T03:26:40.973Z,125.20
2019-02-22T03:29:12.534Z,76.23
2019-02-22T03:31:44.004Z,72.73
2019-02-22T03:34:15.397Z,141.87
2019-02-22T03:36:46.644Z,120.23
2019-02-22T03:39:17.916Z,87.87
2019-02-22T03:41:49.351Z,91.13
2019-02-22T03:44:20.918Z,69.10
2019-02-22T03:46:52.684Z,124.83
2019-02-22T03:49:24.085Z,76.37
2019-02-22T03:51:55.469Z,100.37
2019-02-22T03:54:26.962Z,99.30
2019-02-22T03:56:58.788Z,81.00
2019-02-22T03:59:30.646Z,143.77
2019-02-22T04:02:02.201Z,155.67
2019-02-22T04:04:34.839Z,68.13
2019-02-22T04:07:06.277Z,90.57
2019-02-22T04:09:39.571Z,96.77
2019-02-22T04:12:11.055Z,132.10
2019-02-22T04:14:42.306Z,77.80
2019-02-22T04:17:13.978Z,91.60
2019-02-22T04:19:47.210Z,65.70
2019-02-22T04:22:18.715Z,86.97
2019-02-22T04:24:50.202Z,80.27
2019-02-22T04:27:22.196Z,74.97
2019-02-22T04:29:53.572Z,73.30
2019-02-22T04:32:25.190Z,70.00
2019-02-22T04:34:56.664Z,95.53
2019-02-22T04:37:27.942Z,75.93
2019-02-22T04:39:59.877Z,80.03
2019-02-22T04:42:31.427Z,81.20
2019-02-22T04:45:02.762Z,84.53
2019-02-22T04:47:34.368Z,65.23
2019-02-22T04:50:06.487Z,69.57
2019-02-22T04:52:37.813Z,59.97
2019-02-22T04:55:09.513Z,104.20
2019-02-22T04:57:42.650Z,157.23
2019-02-22T05:00:14.113Z,92.60
2019-02-22T05:02:45.685Z,67.43
2019-02-22T05:05:17.299Z,77.80
2019-02-22T05:07:49.149Z,71.87
2019-02-22T05:10:20.779Z,105.60
2019-02-22T05:12:52.151Z,121.53
2019-02-22T05:15:23.441Z,77.03
2019-02-22T05:17:55.070Z,60.93
2019-02-22T05:20:27.542Z,66.47
2019-02-22T05:23:03.823Z,75.03
2019-02-22T05:25:32.316Z,83.97
2019-02-22T05:28:04.730Z,59.33
2019-02-22T05:30:36.679Z,70.17
2019-02-22T05:33:08.863Z,57.23
2019-02-22T05:35:40.560Z,64.17
2019-02-22T05:38:12.001Z,55.17
2019-02-22T05:40:43.431Z,71.60
2019-02-22T05:43:14.783Z,65.63
2019-02-22T05:45:46.159Z,123.73
2019-02-22T05:48:17.621Z,89.57
2019-02-22T05:50:49.001Z,59.97
2019-02-22T05:53:22.190Z,64.13
2019-02-22T05:55:53.515Z,75.67
2019-02-22T05:58:25.422Z,55.27
2019-02-22T06:00:56.768Z,64.37
2019-02-22T06:03:28.137Z,72.13
2019-02-22T06:05:59.553Z,56.17
2019-02-22T06:08:32.510Z,76.53
2019-02-22T06:11:03.885Z,60.73
2019-02-22T06:13:35.520Z,141.87
2019-02-22T06:16:06.933Z,113.17
2019-02-22T06:18:39.096Z,59.93
2019-02-22T06:21:12.062Z,77.23
2019-02-22T06:23:43.758Z,59.47
2019-02-22T06:26:15.212Z,57.73
2019-02-22T06:28:46.625Z,48.77
2019-02-22T06:31:18.315Z,70.73
2019-02-22T06:33:49.712Z,54.97
2019-02-22T06:36:22.503Z,53.13
2019-02-22T06:38:54.179Z,69.40
2019-02-22T06:41:26.146Z,74.43
2019-02-22T06:43:57.949Z,61.90
2019-02-22T06:46:31.419Z,153.33
2019-02-22T06:49:02.708Z,94.67
2019-02-22T06:51:34.547Z,66.10
2019-02-22T06:54:06.048Z,59.67
2019-02-22T06:56:37.763Z,87.83
2019-02-22T06:59:09.222Z,182.27
2019-02-22T07:01:41.002Z,78.03
2019-02-22T07:04:12.496Z,127.30
2019-02-22T07:06:44.348Z,123.93
2019-02-22T07:09:15.715Z,116.03
2019-02-22T07:11:52.842Z,58.43
2019-02-22T07:14:24.340Z,114.97
2019-02-22T07:16:57.908Z,70.27
2019-02-22T07:19:30.264Z,61.47
2019-02-22T07:22:01.933Z,120.37
2019-02-22T07:24:34.034Z,54.70
2019-02-22T07:27:05.759Z,62.17
2019-02-22T07:29:37.229Z,75.20
2019-02-22T07:32:11.208Z,58.43
2019-02-22T07:34:43.853Z,49.47
2019-02-22T07:37:15.316Z,106.97
2019-02-22T07:39:47.077Z,58.60
2019-02-22T07:42:18.444Z,121.80
2019-02-22T07:44:50.285Z,178.03
2019-02-22T07:47:21.838Z,68.10
2019-02-22T07:49:53.244Z,57.23
2019-02-22T07:52:24.747Z,60.63
2019-02-22T07:54:56.348Z,56.73
2019-02-22T07:57:27.992Z,75.13
2019-02-22T07:59:59.913Z,130.77
2019-02-22T08:02:31.812Z,58.30
2019-02-22T08:05:03.787Z,55.27
2019-02-22T08:07:35.472Z,82.93
2019-02-22T08:10:07.173Z,81.27
2019-02-22T08:12:38.901Z,60.73
2019-02-22T08:15:10.961Z,74.70
2019-02-22T08:17:42.605Z,66.80
2019-02-22T08:20:14.403Z,143.27
2019-02-22T08:22:46.221Z,73.93
2019-02-22T08:25:17.584Z,47.37
2019-02-22T08:27:53.852Z,72.57
2019-02-22T08:30:22.607Z,184.50
2019-02-22T08:32:54.292Z,69.80
2019-02-22T08:35:25.981Z,147.60
2019-02-22T08:37:57.473Z,95.77
2019-02-22T08:40:28.977Z,68.17
2019-02-22T08:43:00.310Z,63.83
2019-02-22T08:45:32.013Z,61.73
2019-02-22T08:48:03.381Z,61.83
2019-02-22T08:50:35.204Z,65.53
2019-02-22T08:53:07.187Z,72.67
2019-02-22T08:55:40.938Z,71.63
2019-02-22T08:58:12.955Z,91.83
2019-02-22T09:00:44.694Z,102.73
2019-02-22T09:03:16.187Z,86.90
2019-02-22T09:05:47.707Z,76.50
2019-02-22T09:08:19.156Z,76.20
2019-02-22T09:11:00.083Z,71.77
2019-02-22T09:13:23.831Z,76.03
2019-02-22T09:15:55.395Z,80.10
2019-02-22T09:18:26.716Z,73.20
2019-02-22T09:20:59.592Z,76.60
2019-02-22T09:23:33.126Z,115.43
2019-02-22T09:26:04.520Z,198.97
2019-02-22T09:28:35.851Z,258.10
2019-02-22T09:31:07.666Z,242.20
2019-02-22T09:33:39.200Z,382.67
2019-02-22T09:36:10.526Z,298.03
2019-02-22T09:38:42.156Z,305.53
2019-02-22T09:41:13.736Z,235.27
2019-02-22T09:43:54.536Z,235.77
2019-02-22T09:46:18.566Z,200.23
2019-02-22T09:48:51.384Z,187.30
2019-02-22T09:51:23.000Z,201.43
2019-02-22T09:53:54.614Z,175.83
2019-02-22T09:56:27.780Z,193.77
2019-02-22T09:58:59.112Z,222.67
2019-02-22T10:01:30.624Z,259.07
2019-02-22T10:04:02.578Z,213.40
2019-02-22T10:06:35.439Z,250.07
2019-02-22T10:09:07.733Z,237.97
2019-02-22T10:11:39.382Z,200.67
2019-02-22T10:14:10.959Z,188.23
2019-02-22T10:16:42.451Z,177.20
2019-02-22T10:19:13.843Z,170.30
2019-02-22T10:21:47.117Z,162.47
2019-02-22T10:24:18.763Z,165.93
2019-02-22T10:26:50.296Z,176.50
2019-02-22T10:29:21.724Z,183.07
2019-02-22T10:31:53.196Z,161.80
2019-02-22T10:34:26.165Z,163.63
2019-02-22T10:36:58.033Z,144.43
2019-02-22T10:39:29.493Z,149.57
2019-02-22T10:42:01.018Z,135.57
2019-02-22T10:44:32.475Z,146.10
2019-02-22T10:47:03.875Z,155.93
2019-02-22T10:49:35.369Z,163.10
2019-02-22T10:52:06.962Z,140.43
2019-02-22T10:54:38.503Z,155.70
2019-02-22T10:57:10.294Z,126.93
2019-02-22T10:59:41.888Z,159.77
2019-02-22T11:02:13.303Z,130.13
2019-02-22T11:04:45.001Z,130.17
2019-02-22T11:07:16.669Z,139.77
2019-02-22T11:09:48.341Z,125.83
2019-02-22T11:12:19.871Z,119.27
2019-02-22T11:14:52.803Z,112.00
2019-02-22T11:17:25.580Z,112.17
2019-02-22T11:19:57.139Z,102.63
2019-02-22T11:22:28.561Z,109.80
2019-02-22T11:25:00.491Z,105.10
2019-02-22T11:27:32.442Z,121.87
2019-02-22T11:30:04.473Z,111.03
2019-02-22T11:32:37.096Z,115.40
2019-02-22T11:35:09.779Z,123.37
2019-02-22T11:37:41.380Z,122.90
2019-02-22T11:40:13.136Z,128.10
2019-02-22T11:42:44.736Z,133.63
2019-02-22T11:45:17.963Z,141.93
2019-02-22T11:47:49.442Z,155.97
2019-02-22T11:50:21.010Z,147.47
2019-02-22T11:52:52.780Z,148.00
2019-02-22T11:55:24.549Z,136.33
2019-02-22T11:57:56.532Z,139.30
2019-02-22T12:00:29.338Z,135.87
2019-02-22T12:03:15.856Z,133.20
2019-02-22T12:05:37.844Z,146.70
2019-02-22T12:08:09.768Z,123.93
2019-02-22T12:10:41.713Z,112.43
2019-02-22T12:13:13.790Z,110.27
2019-02-22T12:15:45.274Z,94.80
2019-02-22T12:18:16.976Z,95.50
2019-02-22T12:20:49.031Z,97.50
2019-02-22T12:23:20.662Z,100.53
2019-02-22T12:25:52.107Z,102.33
2019-02-22T12:28:23.892Z,85.63
2019-02-22T12:30:55.190Z,82.87
2019-02-22T12:33:26.810Z,76.70
2019-02-22T12:35:58.217Z,85.37
2019-02-22T12:38:30.104Z,77.97
2019-02-22T12:41:01.858Z,73.83
2019-02-22T12:43:33.751Z,74.87
2019-02-22T12:46:05.505Z,74.83
2019-02-22T12:48:38.799Z,77.87
2019-02-22T12:51:10.379Z,78.30
2019-02-22T12:53:41.833Z,77.90
2019-02-22T12:56:13.526Z,71.70
2019-02-22T12:58:45.374Z,70.27
2019-02-22T13:01:17.469Z,64.97
2019-02-22T13:03:48.815Z,64.93
2019-02-22T13:06:20.218Z,64.17
2019-02-22T13:08:52.885Z,67.53
2019-02-22T13:11:24.433Z,73.43
2019-02-22T13:13:56.117Z,70.27
2019-02-22T13:16:27.703Z,75.53
2019-02-22T13:19:00.241Z,71.17
2019-02-22T13:21:31.715Z,70.57
2019-02-22T13:24:03.509Z,64.40
2019-02-22T13:26:36.489Z,72.47
2019-02-22T13:29:08.540Z,64.37
2019-02-22T13:31:40.605Z,69.60
2019-02-22T13:34:14.347Z,71.03
2019-02-22T13:36:45.718Z,74.53
2019-02-22T13:39:17.242Z,62.27
2019-02-22T13:41:48.676Z,68.43
2019-02-22T13:44:20.975Z,64.47
2019-02-22T13:46:52.601Z,65.23
2019-02-22T13:49:24.211Z,64.40
2019-02-22T13:51:56.033Z,64.30
2019-02-22T13:54:28.383Z,66.13
2019-02-22T13:56:59.768Z,64.93
2019-02-22T13:59:31.429Z,64.77
2019-02-22T14:02:03.379Z,62.27
2019-02-22T14:04:34.891Z,60.00
2019-02-22T14:07:06.225Z,61.43
2019-02-22T14:09:41.096Z,60.20
2019-02-22T14:12:12.772Z,62.93
2019-02-22T14:14:44.322Z,55.67
2019-02-22T14:17:15.912Z,56.57
2019-02-22T14:19:48.054Z,58.40
2019-02-22T14:22:19.498Z,53.70
2019-02-22T14:24:50.900Z,54.67
2019-02-22T14:27:22.318Z,56.97
2019-02-22T14:29:53.794Z,62.00
2019-02-22T14:32:26.431Z,57.70
2019-02-22T14:34:59.685Z,56.17
2019-02-22T14:37:30.927Z,60.17
2019-02-22T14:40:03.932Z,61.40
2019-02-22T14:42:36.638Z,63.37
2019-02-22T14:45:08.902Z,63.50
2019-02-22T14:47:40.475Z,69.67
2019-02-22T14:50:13.924Z,70.13
2019-02-22T14:52:46.046Z,69.70
2019-02-22T14:55:17.814Z,67.73
2019-02-22T14:57:49.443Z,71.33
2019-02-22T15:00:21.197Z,74.73
2019-02-22T15:02:52.981Z,75.33
2019-02-22T15:05:24.542Z,85.83
2019-02-22T15:07:56.270Z,89.60
2019-02-22T15:10:28.169Z,86.33
2019-02-22T15:12:59.834Z,85.97
2019-02-22T15:15:46.439Z,81.27
2019-02-22T15:18:17.880Z,94.50
2019-02-22T15:20:50.481Z,90.90
2019-02-22T15:23:22.314Z,86.37
2019-02-22T15:25:54.319Z,98.20
2019-02-22T15:28:26.528Z,100.40
2019-02-22T15:30:58.130Z,97.90
2019-02-22T15:33:31.262Z,107.87
2019-02-22T15:36:03.670Z,117.27
2019-02-22T15:38:36.181Z,141.83
2019-02-22T15:41:10.060Z,165.47
2019-02-22T15:43:42.234Z,191.87
2019-02-22T15:46:13.724Z,200.57
2019-02-22T15:48:45.167Z,220.53
2019-02-22T15:51:17.594Z,248.67
2019-02-22T15:53:49.180Z,236.87
2019-02-22T15:56:20.594Z,262.07
2019-02-22T15:58:52.305Z,270.77
2019-02-22T16:01:23.793Z,269.73
2019-02-22T16:04:03.544Z,267.60
2019-02-22T16:06:36.469Z,292.37
2019-02-22T16:09:08.013Z,270.20
2019-02-22T16:11:42.759Z,274.80
2019-02-22T16:14:14.607Z,241.97
2019-02-22T16:16:46.466Z,256.57
2019-02-22T16:19:17.971Z,276.70
2019-02-22T16:21:49.464Z,258.47
2019-02-22T16:24:20.876Z,275.53
2019-02-22T16:27:02.377Z,241.27
2019-02-22T16:29:34.573Z,242.87
2019-02-22T16:32:06.723Z,229.23
2019-02-22T16:34:43.372Z,231.60
2019-02-22T16:37:11.477Z,215.57
2019-02-22T16:39:42.861Z,212.57
2019-02-22T16:42:16.036Z,206.00
2019-02-22T16:44:47.497Z,205.23
2019-02-22T16:47:19.045Z,151.27
2019-02-22T16:49:50.567Z,130.17
2019-02-22T16:52:21.965Z,123.30
2019-02-22T16:54:53.489Z,123.17
2019-02-22T16:57:25.304Z,130.80
2019-02-22T16:59:57.270Z,137.13
2019-02-22T17:02:30.791Z,128.90
2019-02-22T17:05:02.185Z,136.53
2019-02-22T17:07:33.715Z,134.83
2019-02-22T17:10:05.403Z,124.40
2019-02-22T17:12:37.838Z,132.10
2019-02-22T17:15:10.367Z,126.30
2019-02-22T17:17:41.651Z,124.50
2019-02-22T17:20:12.977Z,130.33
2019-02-22T17:22:44.356Z,127.60
2019-02-22T17:25:16.104Z,131.17
2019-02-22T17:27:49.104Z,125.53
2019-02-22T17:30:20.916Z,113.03
2019-02-22T17:32:52.705Z,111.23
2019-02-22T17:35:24.614Z,105.70
2019-02-22T17:37:56.017Z,106.67
2019-02-22T17:40:27.775Z,91.60
2019-02-22T17:42:59.083Z,90.33
2019-02-22T17:45:30.561Z,83.03
2019-02-22T17:48:02.055Z,74.77
2019-02-22T17:50:33.633Z,78.10
2019-02-22T17:53:05.494Z,81.73
2019-02-22T17:55:36.881Z,82.50
2019-02-22T17:58:08.826Z,76.33
2019-02-22T18:00:40.292Z,79.20
2019-02-22T18:03:11.748Z,77.77
2019-02-22T18:05:43.613Z,79.37
2019-02-22T18:08:15.381Z,76.40
2019-02-22T18:10:46.785Z,72.57
2019-02-22T18:13:18.211Z,71.57
2019-02-22T18:15:51.539Z,79.40
2019-02-22T18:18:24.928Z,77.17
2019-02-22T18:20:56.459Z,74.40
2019-02-22T18:23:28.035Z,74.73
2019-02-22T18:25:59.700Z,70.17
2019-02-22T18:28:32.493Z,77.07
2019-02-22T18:31:04.251Z,87.10
2019-02-22T18:33:35.860Z,79.57
2019-02-22T18:36:11.051Z,80.17
2019-02-22T18:38:42.688Z,81.90
2019-02-22T18:41:14.371Z,76.53
2019-02-22T18:43:46.069Z,73.03
2019-02-22T18:46:17.471Z,77.10
2019-02-22T18:48:49.143Z,74.70
2019-02-22T18:51:21.412Z,70.17
2019-02-22T18:53:53.027Z,68.20
2019-02-22T18:56:24.436Z,76.97
2019-02-22T18:58:56.064Z,68.97
2019-02-22T19:01:27.808Z,75.83
2019-02-22T19:03:59.402Z,71.50
2019-02-22T19:06:31.223Z,65.77
2019-02-22T19:09:03.414Z,67.27
2019-02-22T19:11:37.656Z,69.07
2019-02-22T19:14:12.431Z,64.13
2019-02-22T19:16:44.520Z,68.67
2019-02-22T19:19:16.099Z,62.77
2019-02-22T19:21:48.354Z,57.13
2019-02-22T19:24:19.880Z,61.20
2019-02-22T19:26:51.365Z,57.57
2019-02-22T19:29:23.700Z,57.03
2019-02-22T19:31:55.480Z,54.70
2019-02-22T19:34:29.656Z,53.37
2019-02-22T19:37:00.977Z,63.13
2019-02-22T19:39:34.077Z,55.60
2019-02-22T19:42:05.999Z,54.37
2019-02-22T19:44:37.626Z,55.23
2019-02-22T19:47:09.140Z,54.57
2019-02-22T19:49:40.603Z,49.20
2019-02-22T19:52:13.022Z,47.57
2019-02-22T19:54:44.973Z,50.27
2019-02-22T19:57:16.487Z,54.83
2019-02-22T19:59:47.923Z,54.43
2019-02-22T20:02:19.626Z,62.50
2019-02-22T20:04:53.519Z,73.17
2019-02-22T20:07:24.055Z,63.17
2019-02-22T20:09:55.814Z,54.43
2019-02-22T20:12:29.141Z,51.80
2019-02-22T20:15:00.855Z,53.17
2019-02-22T20:17:32.624Z,52.67
2019-02-22T20:20:04.476Z,49.97
2019-02-22T20:22:40.427Z,45.97
2019-02-22T20:25:12.062Z,48.97
2019-02-22T20:27:44.516Z,48.20
2019-02-22T20:30:16.532Z,47.40
2019-02-22T20:32:48.387Z,41.07
2019-02-22T20:35:23.930Z,43.93
2019-02-22T20:38:02.066Z,46.00
2019-02-22T20:40:34.512Z,45.00
2019-02-22T20:43:09.507Z,47.87
2019-02-22T20:45:41.893Z,51.07
2019-02-22T20:48:13.640Z,49.47
2019-02-22T20:50:47.382Z,53.13
2019-02-22T20:53:18.949Z,51.80
2019-02-22T20:55:50.900Z,61.67
2019-02-22T20:58:22.341Z,68.10
2019-02-22T21:00:53.752Z,62.63
2019-02-22T21:03:25.515Z,60.47
2019-02-22T21:05:57.433Z,62.57
2019-02-22T21:08:29.139Z,65.50
2019-02-22T21:11:00.471Z,68.67
2019-02-22T21:13:31.997Z,62.10
2019-02-22T21:16:04.015Z,54.77
2019-02-22T21:18:35.486Z,52.93
2019-02-22T21:21:07.279Z,54.60
2019-02-22T21:23:38.669Z,56.73
2019-02-22T21:26:16.127Z,58.27
2019-02-22T21:28:49.340Z,55.57
2019-02-22T21:31:20.734Z,58.40
2019-02-22T21:33:52.094Z,58.67
2019-02-22T21:36:23.568Z,57.33
2019-02-22T21:38:55.324Z,59.10
2019-02-22T21:41:26.924Z,64.10
2019-02-22T21:44:00.347Z,60.50
2019-02-22T21:46:31.780Z,54.83
2019-02-22T21:49:03.874Z,54.27
2019-02-22T21:51:35.296Z,53.00
2019-02-22T21:54:06.582Z,60.07
2019-02-22T21:56:40.167Z,63.97
2019-02-22T21:59:11.937Z,58.33
2019-02-22T22:01:43.394Z,62.00
2019-02-22T22:04:16.768Z,63.57
2019-02-22T22:06:48.550Z,69.30
2019-02-22T22:09:19.944Z,62.87
2019-02-22T22:11:51.398Z,67.80
2019-02-22T22:14:22.788Z,67.40
2019-02-22T22:16:54.670Z,68.27
2019-02-22T22:19:26.244Z,58.83
2019-02-22T22:21:59.212Z,60.17
2019-02-22T22:24:30.817Z,58.30
2019-02-22T22:27:02.484Z,67.67
2019-02-22T22:29:34.154Z,81.80
2019-02-22T22:32:06.006Z,86.23
2019-02-22T22:34:37.481Z,90.50
2019-02-22T22:37:09.450Z,85.67
2019-02-22T22:39:41.990Z,89.07
2019-02-22T22:42:13.892Z,86.53
2019-02-22T22:44:45.492Z,78.87
2019-02-22T22:47:18.606Z,69.10
2019-02-22T22:49:50.276Z,75.27
2019-02-22T22:52:22.211Z,69.73
2019-02-22T22:54:55.407Z,68.07
2019-02-22T22:57:27.226Z,72.97
2019-02-22T22:59:58.860Z,76.90
2019-02-22T23:02:30.679Z,74.90
2019-02-22T23:05:03.020Z,75.20
2019-02-22T23:07:36.265Z,77.83
2019-02-22T23:10:08.747Z,81.87
2019-02-22T23:12:44.144Z,89.20
2019-02-22T23:15:15.089Z,88.33
2019-02-22T23:17:46.480Z,88.47
2019-02-22T23:20:18.199Z,74.60
2019-02-22T23:22:51.578Z,80.20
2019-02-22T23:25:24.104Z,81.10
2019-02-22T23:27:55.581Z,81.97
2019-02-22T23:30:27.015Z,89.03
2019-02-22T23:32:58.347Z,105.40
2019-02-22T23:35:29.792Z,116.13
2019-02-22T23:38:01.358Z,122.23
2019-02-22T23:40:33.114Z,125.87
2019-02-22T23:43:05.245Z,118.07
2019-02-22T23:45:36.829Z,104.47
2019-02-22T23:48:08.314Z,106.30
2019-02-22T23:50:40.046Z,111.27
2019-02-22T23:53:11.422Z,100.97
2019-02-22T23:55:42.817Z,104.07
2019-02-22T23:58:14.222Z,99.60
